Augustaville, Pennsylvania
Current Conditions -  °F | °C
As of 11:53 PM on Wednesday 17 Dec 2014 (Local Time) from KSEG Reporting Station
Overcast Overcast  
Wind Chill: -3°   Ceiling: 4700
Heat Index:   Visibility: 10mi
Dew Point: -6°   Wind: 13mph
Humidity: 57%   Direction: 280°W
Pressure: 30.02"   Gusts: 24mph
Location:  40.83°N, 76.761°W
Report Text: KSEG 180453Z AUTO 28011G21KT 10SM BKN047 OVC055 02/M06 A3002 RMK AO2 SLP167 T00171061 400890017
Loading
Personal Weather Stations






























Interactive Weather Map New forecast layout! Learn more

10-Day Weather Forecast

Advertisements
Track Severe Weather on mobile